Time;durP1;ratioP1;P1;durP2;ratioP2;P2;SDS_P1;SDS_P2;PMS_P1;PMS_P2;Temp;Humidity;BMP_temperature;BMP_pressure;BME280_temperature;BME280_humidity;BME280_pressure;Samples;Min_cycle;Max_cycle;Signal;HPM_P1;HPM_P2
2022/05/09 00:00:59;;;;;;;12.45;10.60;;;15.50;99.90;;;;;;5092429;28;20032;-87
2022/05/09 00:03:25;;;;;;;11.32;10.18;;;15.30;99.90;;;;;;5092689;28;20047;-87
2022/05/09 00:05:50;;;;;;;11.60;10.50;;;15.20;99.90;;;;;;5087535;28;20073;-87
2022/05/09 00:08:16;;;;;;;13.38;10.85;;;15.30;99.90;;;;;;5080439;28;20119;-88
2022/05/09 00:10:41;;;;;;;11.70;10.60;;;15.20;99.90;;;;;;5092857;28;20036;-87
2022/05/09 00:13:07;;;;;;;11.35;10.23;;;15.10;99.90;;;;;;5093235;28;20031;-87
2022/05/09 00:15:33;;;;;;;11.98;10.52;;;15.30;99.90;;;;;;5093050;28;20108;-87
2022/05/09 00:17:58;;;;;;;11.90;10.80;;;15.20;99.90;;;;;;5091678;28;20074;-87
2022/05/09 00:20:24;;;;;;;11.40;10.20;;;15.10;99.90;;;;;;5086686;28;20032;-87
2022/05/09 00:22:53;;;;;;;12.13;9.98;;;15.00;99.90;;;;;;5092622;28;20388;-87
2022/05/09 00:25:21;;;;;;;10.52;9.52;;;14.80;99.90;;;;;;5089046;28;20468;-87
2022/05/09 00:27:47;;;;;;;10.52;9.60;;;14.80;99.90;;;;;;5092359;28;20074;-87
2022/05/09 00:30:13;;;;;;;11.18;9.85;;;14.90;99.90;;;;;;5092479;28;20030;-87
2022/05/09 00:32:38;;;;;;;11.15;10.15;;;15.00;99.90;;;;;;5091240;28;20027;-88
2022/05/09 00:35:05;;;;;;;12.15;10.52;;;14.90;99.90;;;;;;5092350;28;20435;-87
2022/05/09 00:37:30;;;;;;;11.23;10.13;;;14.80;99.90;;;;;;5091500;28;20035;-87
2022/05/09 00:39:56;;;;;;;11.43;10.32;;;14.80;99.90;;;;;;5092854;28;20024;-87
2022/05/09 00:42:22;;;;;;;11.52;10.48;;;14.70;99.90;;;;;;5091670;28;20078;-88
2022/05/09 00:44:47;;;;;;;11.32;10.07;;;14.60;99.90;;;;;;5090979;28;20116;-87
2022/05/09 00:47:13;;;;;;;12.48;10.82;;;14.70;99.90;;;;;;5092238;28;20039;-87
2022/05/09 00:49:50;;;;;;;11.48;9.77;;;14.70;99.90;;;;;;5092262;28;20024;-87
2022/05/09 00:52:33;;;;;;;14.45;10.10;;;14.50;99.90;;;;;;5092679;28;20076;-87
2022/05/09 00:55:06;;;;;;;11.30;10.30;;;14.50;99.90;;;;;;5090027;28;20493;-87
2022/05/09 00:57:45;;;;;;;11.60;10.38;;;14.80;99.90;;;;;;5085089;28;20039;-88
2022/05/09 01:00:16;;;;;;;10.77;9.77;;;14.80;99.90;;;;;;5090998;28;20020;-87
2022/05/09 01:02:48;;;;;;;11.40;10.30;;;14.80;99.90;;;;;;5091916;28;20032;-87
2022/05/09 01:05:15;;;;;;;12.07;10.80;;;14.70;99.90;;;;;;5091912;28;20028;-87
2022/05/09 01:07:42;;;;;;;10.80;9.80;;;14.80;99.90;;;;;;5091020;28;20020;-88
2022/05/09 01:10:10;;;;;;;11.38;10.27;;;14.50;99.90;;;;;;5090417;28;20396;-87
2022/05/09 01:12:38;;;;;;;12.27;11.10;;;14.50;99.90;;;;;;5091080;28;20030;-87
2022/05/09 01:15:07;;;;;;;11.68;10.55;;;14.50;99.90;;;;;;5091222;28;20036;-87
2022/05/09 01:17:39;;;;;;;11.40;9.82;;;14.70;99.90;;;;;;5091438;28;20046;-87
2022/05/09 01:20:06;;;;;;;11.23;10.13;;;14.70;99.90;;;;;;5091621;28;20024;-87
2022/05/09 01:22:36;;;;;;;11.35;10.10;;;14.80;99.90;;;;;;5091636;28;20024;-87
2022/05/09 01:25:06;;;;;;;12.68;10.50;;;14.80;99.90;;;;;;5089314;28;20164;-87
2022/05/09 01:27:38;;;;;;;11.93;10.75;;;14.80;99.90;;;;;;5091120;28;20127;-87
2022/05/09 01:30:12;;;;;;;12.82;10.23;;;14.70;99.90;;;;;;5091436;28;20598;-87
2022/05/09 01:32:46;;;;;;;10.65;9.65;;;14.80;99.90;;;;;;5091004;28;20062;-87
2022/05/09 01:35:25;;;;;;;11.45;10.40;;;14.70;99.90;;;;;;5091811;28;20134;-87
2022/05/09 01:37:59;;;;;;;11.45;10.30;;;14.50;99.90;;;;;;5075337;28;20028;-86
2022/05/09 01:40:25;;;;;;;13.27;11.18;;;14.30;99.90;;;;;;5087885;28;20024;-87
2022/05/09 01:42:50;;;;;;;11.07;9.93;;;14.30;99.90;;;;;;5091712;28;20450;-87
2022/05/09 01:45:16;;;;;;;10.75;9.75;;;14.10;99.90;;;;;;5091282;28;20566;-87
2022/05/09 01:50:26;;;;;;;9.63;8.70;;;13.60;99.90;;;;;;5091382;28;20444;-87
2022/05/09 01:52:53;;;;;;;10.65;9.52;;;13.50;99.90;;;;;;5091423;28;20028;-87
2022/05/09 01:55:19;;;;;;;10.93;9.82;;;13.50;99.90;;;;;;5088051;28;20044;-87
2022/05/09 01:57:44;;;;;;;11.00;9.90;;;13.70;99.90;;;;;;5091215;28;20519;-87
2022/05/09 02:00:10;;;;;;;11.73;10.63;;;13.60;99.90;;;;;;5090549;28;20141;-87
2022/05/09 02:02:36;;;;;;;15.23;10.63;;;13.50;99.90;;;;;;5089895;28;20024;-87
2022/05/09 02:05:02;;;;;;;12.93;11.07;;;13.50;99.90;;;;;;5091094;28;20035;-87
2022/05/09 02:07:28;;;;;;;11.88;10.68;;;13.40;99.90;;;;;;5092035;28;20402;-87
2022/05/09 02:09:54;;;;;;;13.35;10.55;;;13.40;99.90;;;;;;5094006;28;20020;-87
2022/05/09 02:12:20;;;;;;;11.95;10.80;;;13.50;99.90;;;;;;5095509;28;20149;-87
2022/05/09 02:14:47;;;;;;;11.57;10.07;;;13.70;99.90;;;;;;5095383;28;20033;-87
2022/05/09 02:17:14;;;;;;;13.63;10.57;;;13.80;99.90;;;;;;5095690;28;20039;-87
2022/05/09 02:19:41;;;;;;;11.32;10.18;;;13.70;99.90;;;;;;5095116;28;20097;-87
2022/05/09 02:22:11;;;;;;;12.80;11.40;;;13.70;99.90;;;;;;5095405;28;20020;-87
2022/05/09 02:24:39;;;;;;;12.15;10.98;;;13.70;99.90;;;;;;5094420;28;20103;-87
2022/05/09 02:27:07;;;;;;;12.27;10.95;;;13.70;99.90;;;;;;5094891;28;20048;-87
2022/05/09 02:29:33;;;;;;;11.98;10.82;;;13.50;99.90;;;;;;5094905;28;20024;-87
2022/05/09 02:31:59;;;;;;;12.57;11.27;;;13.50;99.90;;;;;;5093639;28;20568;-87
2022/05/09 02:34:25;;;;;;;12.85;11.63;;;13.40;99.90;;;;;;5093634;28;20512;-87
2022/05/09 02:36:51;;;;;;;11.85;10.70;;;13.60;99.90;;;;;;5094005;28;20423;-87
2022/05/09 02:39:16;;;;;;;12.32;10.93;;;13.80;99.90;;;;;;5092914;28;20032;-87
2022/05/09 02:41:42;;;;;;;12.35;11.05;;;13.80;99.90;;;;;;5094972;28;20032;-87
2022/05/09 02:44:08;;;;;;;11.68;10.68;;;13.80;99.90;;;;;;5094826;28;20016;-86
2022/05/09 02:46:34;;;;;;;12.15;11.05;;;13.70;99.90;;;;;;5094719;28;20492;-87
2022/05/09 02:49:02;;;;;;;11.38;10.27;;;13.70;99.90;;;;;;5095249;28;20028;-87
2022/05/09 02:51:28;;;;;;;12.15;10.95;;;13.90;99.90;;;;;;5092876;28;20051;-87
2022/05/09 02:53:58;;;;;;;12.05;10.77;;;14.00;99.90;;;;;;5093146;28;20051;-88
2022/05/09 02:56:25;;;;;;;12.52;11.05;;;13.80;99.90;;;;;;5094656;28;20028;-86
2022/05/09 02:58:50;;;;;;;11.60;10.40;;;13.60;99.90;;;;;;5078432;28;20496;-87
2022/05/09 03:01:16;;;;;;;11.45;10.25;;;13.30;99.90;;;;;;5094844;28;20063;-87
2022/05/09 03:06:27;;;;;;;11.82;9.65;;;13.30;99.90;;;;;;5094277;28;20066;-87
2022/05/09 03:08:52;;;;;;;13.15;10.85;;;13.30;99.90;;;;;;5093841;28;20024;-87
2022/05/09 03:11:18;;;;;;;12.10;10.98;;;13.30;99.90;;;;;;5093029;28;20413;-87
2022/05/09 03:13:43;;;;;;;12.25;10.50;;;13.40;99.90;;;;;;5093104;28;20031;-87
2022/05/09 03:16:09;;;;;;;11.13;10.13;;;13.40;99.90;;;;;;5094232;28;20043;-87
2022/05/09 03:18:36;;;;;;;11.45;10.45;;;13.30;99.90;;;;;;5092747;28;20024;-87
2022/05/09 03:21:02;;;;;;;12.30;10.52;;;13.30;99.90;;;;;;5093486;28;20130;-87
2022/05/09 03:23:28;;;;;;;11.30;10.18;;;13.50;99.90;;;;;;5093514;28;20412;-87
2022/05/09 03:25:53;;;;;;;11.95;10.85;;;13.60;99.90;;;;;;5093736;28;20024;-87
2022/05/09 03:28:24;;;;;;;11.07;9.98;;;13.70;99.90;;;;;;5094941;28;20048;-87
2022/05/09 03:30:52;;;;;;;11.45;10.15;;;13.70;99.90;;;;;;5093589;28;20060;-87
2022/05/09 03:33:24;;;;;;;12.18;10.55;;;13.70;99.90;;;;;;5093920;28;20527;-87
2022/05/09 03:35:50;;;;;;;11.90;10.80;;;13.70;99.90;;;;;;5091824;28;20043;-87
2022/05/09 03:38:15;;;;;;;11.75;10.00;;;13.80;99.90;;;;;;5093240;28;20020;-87
2022/05/09 03:40:41;;;;;;;11.32;10.10;;;13.70;99.90;;;;;;5093581;28;20039;-87
2022/05/09 03:43:07;;;;;;;12.23;10.60;;;13.80;99.90;;;;;;5094152;28;20525;-86
2022/05/09 03:45:34;;;;;;;11.30;10.20;;;13.80;99.90;;;;;;5093265;28;20032;-87
2022/05/09 03:47:59;;;;;;;11.82;10.60;;;13.80;99.90;;;;;;5093222;28;20020;-87
2022/05/09 03:50:28;;;;;;;12.07;10.93;;;13.70;99.90;;;;;;5092368;28;20104;-87
2022/05/09 03:52:54;;;;;;;11.55;10.50;;;13.70;99.90;;;;;;5078091;28;20041;-87
2022/05/09 03:55:19;;;;;;;12.95;11.20;;;13.80;99.90;;;;;;5093963;28;20418;-87
2022/05/09 03:57:50;;;;;;;11.98;10.75;;;13.80;99.90;;;;;;5091903;28;20119;-87
2022/05/09 04:00:18;;;;;;;11.63;10.52;;;13.50;99.90;;;;;;5093432;28;20024;-86
2022/05/09 04:02:44;;;;;;;12.50;11.23;;;13.50;99.90;;;;;;5093003;28;20036;-87
2022/05/09 04:05:15;;;;;;;12.45;11.18;;;13.60;99.90;;;;;;5089585;28;20028;-87
2022/05/09 04:07:46;;;;;;;15.38;11.70;;;13.20;99.90;;;;;;5091973;28;20185;-87
2022/05/09 04:10:14;;;;;;;12.20;11.10;;;13.30;99.90;;;;;;5093913;28;20545;-87
2022/05/09 04:12:40;;;;;;;13.07;11.80;;;13.30;99.90;;;;;;5093351;28;20035;-86
2022/05/09 04:17:52;;;;;;;11.95;10.73;;;13.30;99.90;;;;;;5092705;28;20092;-87
2022/05/09 04:20:17;;;;;;;12.35;10.93;;;13.40;99.90;;;;;;5093034;28;20066;-86
2022/05/09 04:22:43;;;;;;;12.95;11.63;;;13.40;99.90;;;;;;5092699;28;20449;-87
2022/05/09 04:25:09;;;;;;;12.70;11.30;;;13.30;99.90;;;;;;5092065;28;20055;-86
2022/05/09 04:27:36;;;;;;;12.23;10.98;;;13.30;99.90;;;;;;5092525;28;20127;-87
2022/05/09 04:30:02;;;;;;;12.02;10.93;;;13.30;99.90;;;;;;5091975;28;20027;-87
2022/05/09 04:32:28;;;;;;;11.80;10.65;;;13.40;99.90;;;;;;5092502;28;20063;-87
2022/05/09 04:34:53;;;;;;;12.80;11.02;;;13.40;99.90;;;;;;5092080;28;20051;-87
2022/05/09 04:37:19;;;;;;;12.13;11.02;;;13.40;99.90;;;;;;5091822;28;20032;-87
2022/05/09 04:39:45;;;;;;;12.00;10.85;;;13.20;99.90;;;;;;5092711;28;20036;-87
2022/05/09 04:42:12;;;;;;;11.98;10.77;;;13.10;99.90;;;;;;5092304;28;20031;-87
2022/05/09 04:44:38;;;;;;;11.07;9.95;;;13.30;99.90;;;;;;5092224;28;20403;-87
2022/05/09 04:47:04;;;;;;;11.75;10.52;;;13.20;99.90;;;;;;5090804;28;20028;-87
2022/05/09 04:49:29;;;;;;;12.13;10.40;;;13.10;99.90;;;;;;5091640;28;20435;-87
2022/05/09 04:51:55;;;;;;;11.15;10.15;;;13.00;99.90;;;;;;5092539;28;20031;-87
2022/05/09 04:54:20;;;;;;;11.75;10.55;;;12.90;99.90;;;;;;5092037;28;20103;-87
2022/05/09 04:56:46;;;;;;;11.00;9.90;;;12.80;99.90;;;;;;5091986;28;20028;-87
2022/05/09 04:59:12;;;;;;;11.27;10.18;;;12.70;99.90;;;;;;5090846;28;20024;-87
2022/05/09 05:01:37;;;;;;;11.82;10.57;;;12.70;99.90;;;;;;5090982;28;20421;-86
2022/05/09 05:04:05;;;;;;;12.50;10.32;;;12.90;99.90;;;;;;5092262;28;20111;-87
2022/05/09 05:06:31;;;;;;;13.18;10.45;;;13.00;99.90;;;;;;5091981;28;20077;-88
2022/05/09 05:08:57;;;;;;;13.57;9.95;;;13.00;99.90;;;;;;5091334;28;20024;-88
2022/05/09 05:11:23;;;;;;;12.60;9.93;;;13.30;99.90;;;;;;5091366;28;20108;-88
2022/05/09 05:13:48;;;;;;;12.02;10.82;;;13.40;99.90;;;;;;5090508;28;20126;-88
2022/05/09 05:16:14;;;;;;;14.38;10.77;;;13.50;99.90;;;;;;5090520;28;20197;-87
2022/05/09 05:18:40;;;;;;;11.32;9.95;;;13.50;99.90;;;;;;5091666;28;20086;-87
2022/05/09 05:21:11;;;;;;;11.73;10.63;;;13.50;99.90;;;;;;5091362;28;20028;-89
2022/05/09 05:23:38;;;;;;;11.38;10.25;;;13.70;99.90;;;;;;5090379;28;20032;-87
2022/05/09 05:26:04;;;;;;;20.42;10.32;;;13.80;99.90;;;;;;5090808;28;20024;-87
2022/05/09 05:28:32;;;;;;;10.98;9.52;;;13.70;99.90;;;;;;5091703;28;20028;-88
2022/05/09 05:31:14;;;;;;;11.10;9.27;;;13.80;99.90;;;;;;5092857;28;20051;-88
2022/05/09 05:33:39;;;;;;;11.93;9.77;;;14.10;99.90;;;;;;5091921;28;20027;-87
2022/05/09 05:36:05;;;;;;;12.82;9.65;;;14.10;99.90;;;;;;5091329;28;20404;-86
2022/05/09 05:38:31;;;;;;;10.68;9.35;;;14.30;99.90;;;;;;5091475;28;20103;-87
2022/05/09 05:40:57;;;;;;;10.85;9.75;;;14.10;99.90;;;;;;5090967;28;20040;-87
2022/05/09 05:43:22;;;;;;;9.68;8.77;;;14.20;99.90;;;;;;5091146;28;20021;-87
2022/05/09 05:45:53;;;;;;;10.38;9.25;;;14.20;99.90;;;;;;5092023;28;20020;-86
2022/05/09 05:48:19;;;;;;;10.70;9.50;;;14.20;99.90;;;;;;5091895;28;20118;-86
2022/05/09 05:50:44;;;;;;;9.85;8.82;;;14.20;99.90;;;;;;5091362;28;20446;-86
2022/05/09 05:53:10;;;;;;;9.95;9.05;;;14.40;99.90;;;;;;5089677;28;20031;-86
2022/05/09 05:55:36;;;;;;;11.77;9.30;;;14.40;99.90;;;;;;5091809;28;20039;-86
2022/05/09 05:58:02;;;;;;;11.48;8.73;;;14.40;99.90;;;;;;5092349;28;20061;-86
2022/05/09 06:00:27;;;;;;;12.80;9.18;;;14.70;99.90;;;;;;5091068;28;20042;-86
2022/05/09 06:02:53;;;;;;;9.32;8.43;;;14.70;99.90;;;;;;5091562;28;20020;-86
2022/05/09 06:05:19;;;;;;;11.35;9.20;;;15.00;99.90;;;;;;5090846;28;20028;-86
2022/05/09 06:07:52;;;;;;;9.63;8.73;;;15.00;99.90;;;;;;5075265;28;20111;-86
2022/05/09 06:10:18;;;;;;;9.65;8.68;;;15.00;99.90;;;;;;5092556;28;20028;-92
2022/05/09 06:12:44;;;;;;;9.63;8.52;;;15.00;99.90;;;;;;5092698;28;20089;-92
2022/05/09 06:15:31;;;;;;;18.67;9.65;;;15.20;99.90;;;;;;5091856;28;20571;-92
2022/05/09 06:17:59;;;;;;;10.02;9.02;;;15.30;99.90;;;;;;5092589;28;20028;-93
2022/05/09 06:20:26;;;;;;;16.35;10.05;;;15.30;99.90;;;;;;5092262;28;20020;-92
2022/05/09 06:22:54;;;;;;;9.77;8.88;;;15.40;99.90;;;;;;5092839;28;20031;-92
2022/05/09 06:25:21;;;;;;;9.98;8.98;;;15.60;99.90;;;;;;5088771;28;20047;-91
2022/05/09 06:27:47;;;;;;;12.38;9.98;;;15.70;99.90;;;;;;5091022;28;20100;-92
2022/05/09 06:30:16;;;;;;;10.48;9.15;;;15.70;99.90;;;;;;5091533;28;20054;-92
2022/05/09 06:32:42;;;;;;;11.43;10.10;;;15.90;99.90;;;;;;5091133;28;20177;-92
2022/05/09 06:35:10;;;;;;;9.82;8.82;;;16.00;99.90;;;;;;5092169;28;20544;-91
2022/05/09 06:37:38;;;;;;;11.85;9.85;;;16.30;99.90;;;;;;5090692;28;20024;-92
2022/05/09 06:40:05;;;;;;;10.95;9.93;;;16.30;99.90;;;;;;5086421;28;20500;-92
2022/05/09 06:42:31;;;;;;;18.67;15.35;;;16.30;99.90;;;;;;5091492;28;20682;-92
2022/05/09 06:44:57;;;;;;;11.55;10.55;;;16.50;99.90;;;;;;5091263;28;20028;-93
2022/05/09 06:47:23;;;;;;;13.07;11.52;;;16.50;99.90;;;;;;5091286;28;20477;-92
2022/05/09 06:49:49;;;;;;;12.10;10.88;;;16.70;99.90;;;;;;5090954;28;20041;-94
2022/05/09 06:52:14;;;;;;;11.43;10.35;;;16.70;99.90;;;;;;5092431;28;20035;-92
2022/05/09 06:54:40;;;;;;;12.75;11.32;;;16.50;99.90;;;;;;5093781;28;20028;-93
2022/05/09 06:57:06;;;;;;;12.27;11.18;;;16.60;99.90;;;;;;5095225;28;20032;-94
2022/05/09 06:59:32;;;;;;;12.80;11.55;;;16.70;99.90;;;;;;5093934;28;20027;-85
2022/05/09 07:01:59;;;;;;;12.45;10.88;;;16.80;99.90;;;;;;5094380;28;20036;-84
2022/05/09 07:04:24;;;;;;;12.10;11.00;;;16.80;99.90;;;;;;5096625;28;20027;-85
2022/05/09 07:06:50;;;;;;;13.30;11.93;;;16.80;99.90;;;;;;5095169;28;20028;-85
2022/05/09 07:09:15;;;;;;;12.40;11.15;;;16.90;99.90;;;;;;5093682;28;20032;-78
2022/05/09 07:11:42;;;;;;;12.52;11.15;;;17.10;99.90;;;;;;5095000;28;20027;-85
2022/05/09 07:14:08;;;;;;;11.63;10.40;;;17.20;99.90;;;;;;5095227;28;20107;-92
2022/05/09 07:16:35;;;;;;;12.77;10.68;;;17.20;99.90;;;;;;5095619;28;20047;-94
2022/05/09 07:19:01;;;;;;;11.18;10.18;;;17.20;99.90;;;;;;5095146;28;20024;-94
2022/05/09 07:21:27;;;;;;;12.55;11.23;;;17.30;99.90;;;;;;5095492;28;20025;-93
2022/05/09 07:23:53;;;;;;;11.88;10.68;;;17.40;99.90;;;;;;5094673;28;20032;-92
2022/05/09 07:26:19;;;;;;;12.02;10.82;;;17.40;99.90;;;;;;5093753;28;20024;-90
2022/05/09 07:28:45;;;;;;;11.45;10.35;;;17.20;99.90;;;;;;5093450;28;20081;-89
2022/05/09 07:31:11;;;;;;;11.48;10.32;;;17.40;99.90;;;;;;5094566;28;20030;-90
2022/05/09 07:33:36;;;;;;;11.48;10.38;;;17.30;99.90;;;;;;5094497;28;20546;-91
2022/05/09 07:36:03;;;;;;;13.05;11.00;;;17.20;99.90;;;;;;5095352;28;20040;-93
2022/05/09 07:38:30;;;;;;;14.73;11.20;;;17.10;99.90;;;;;;5094859;28;20120;-93
2022/05/09 07:40:56;;;;;;;14.07;11.75;;;17.20;99.90;;;;;;5094197;28;20024;-93
2022/05/09 07:43:25;;;;;;;12.15;10.93;;;17.10;99.90;;;;;;5094566;28;20024;-93
2022/05/09 07:45:52;;;;;;;12.32;11.13;;;17.10;99.90;;;;;;5095493;28;20495;-95
2022/05/09 07:48:22;;;;;;;13.60;11.30;;;17.20;99.90;;;;;;5094850;28;20396;-93
2022/05/09 07:50:49;;;;;;;12.80;11.63;;;17.20;99.90;;;;;;5095075;28;20119;-89
2022/05/09 07:53:31;;;;;;;15.35;11.55;;;17.20;99.90;;;;;;5094623;28;20020;-91
2022/05/09 07:55:58;;;;;;;12.90;11.60;;;17.30;99.90;;;;;;5079434;28;20059;-93
2022/05/09 07:58:23;;;;;;;12.93;11.57;;;17.30;99.90;;;;;;5094972;28;20048;-91
2022/05/09 08:00:49;;;;;;;12.85;11.55;;;17.30;99.90;;;;;;5094393;28;20024;-90
2022/05/09 08:03:22;;;;;;;12.55;11.02;;;17.40;99.90;;;;;;5094170;28;20028;-93
2022/05/09 08:05:52;;;;;;;13.18;11.98;;;17.50;99.90;;;;;;5096099;28;20020;-93
2022/05/09 08:08:17;;;;;;;12.25;11.00;;;17.50;99.90;;;;;;5098511;28;20044;-92
2022/05/09 08:10:44;;;;;;;11.75;10.13;;;17.60;99.90;;;;;;5096212;28;20093;-92
2022/05/09 08:13:12;;;;;;;12.35;11.13;;;17.60;99.90;;;;;;5094208;28;20020;-92
2022/05/09 08:15:38;;;;;;;11.93;10.73;;;17.70;99.90;;;;;;5092388;28;20036;-91
2022/05/09 08:18:05;;;;;;;13.25;10.65;;;17.80;99.90;;;;;;5093972;28;20024;-91
2022/05/09 08:20:34;;;;;;;19.38;10.77;;;18.00;99.90;;;;;;5094147;28;20382;-92
2022/05/09 08:23:06;;;;;;;10.73;9.70;;;18.10;99.90;;;;;;5092332;28;20048;-91
2022/05/09 08:25:36;;;;;;;11.32;10.27;;;18.20;99.90;;;;;;5093724;28;20035;-91
2022/05/09 08:28:03;;;;;;;11.30;10.23;;;18.30;99.90;;;;;;5093851;28;20048;-91
2022/05/09 08:33:07;;;;;;;12.07;10.43;;;18.30;99.90;;;;;;5532735;22;20049;-81
2022/05/09 08:35:33;;;;;;;11.90;10.57;;;18.20;99.90;;;;;;5032123;28;20048;-82
2022/05/09 08:37:59;;;;;;;11.00;9.88;;;18.20;99.90;;;;;;5032685;28;20071;-81
2022/05/09 08:40:38;;;;;;;11.82;10.65;;;18.50;99.90;;;;;;5032649;28;20441;-81
2022/05/09 08:43:09;;;;;;;11.27;10.07;;;18.60;99.90;;;;;;5032912;28;20040;-81
2022/05/09 08:45:39;;;;;;;11.13;10.13;;;18.60;99.90;;;;;;5033289;28;20029;-81
2022/05/09 08:48:35;;;;;;;11.40;10.10;;;18.60;99.90;;;;;;5032846;28;20473;-81
2022/05/09 08:51:47;;;;;;;11.18;10.00;;;18.70;99.90;;;;;;5032358;28;20040;-81
2022/05/09 08:54:20;;;;;;;10.52;9.63;;;18.80;99.90;;;;;;5032196;28;20489;-81
2022/05/09 08:56:50;;;;;;;11.05;9.95;;;19.00;99.90;;;;;;5032504;28;20071;-81
2022/05/09 08:59:27;;;;;;;12.93;11.43;;;19.00;99.90;;;;;;5032617;28;20037;-81
2022/05/09 09:02:11;;;;;;;11.32;10.23;;;19.10;99.90;;;;;;5032175;28;20036;-81
2022/05/09 09:04:38;;;;;;;11.45;10.35;;;19.20;99.90;;;;;;5032005;28;20393;-82
2022/05/09 09:07:38;;;;;;;11.43;10.40;;;19.20;99.90;;;;;;5032065;28;20374;-81
2022/05/09 09:10:03;;;;;;;12.00;10.80;;;19.10;99.90;;;;;;5031738;28;20033;-81
2022/05/09 09:12:44;;;;;;;11.85;10.77;;;19.20;99.90;;;;;;5032983;28;20021;-81
2022/05/09 09:15:32;;;;;;;11.43;10.45;;;19.30;99.90;;;;;;5032256;28;20034;-81
2022/05/09 09:18:05;;;;;;;13.13;10.55;;;19.40;99.90;;;;;;5030776;28;20037;-82
2022/05/09 09:21:01;;;;;;;12.15;10.30;;;19.50;99.90;;;;;;5031975;28;20108;-81
2022/05/09 09:23:53;;;;;;;13.40;10.68;;;19.50;99.90;;;;;;5032123;28;20458;-81
2022/05/09 09:26:51;;;;;;;11.65;10.40;;;19.70;99.90;;;;;;5032015;28;20072;-81
2022/05/09 09:29:32;;;;;;;10.60;9.68;;;19.80;99.90;;;;;;5031757;28;20534;-81
2022/05/09 09:32:05;;;;;;;10.18;9.18;;;20.00;99.90;;;;;;5031083;28;20033;-81
2022/05/09 09:34:55;;;;;;;10.73;9.73;;;20.10;99.90;;;;;;5031752;28;20563;-81
2022/05/09 09:37:35;;;;;;;10.88;9.75;;;20.10;99.90;;;;;;5017964;28;20501;-81
2022/05/09 09:40:03;;;;;;;7.80;7.10;;;20.30;99.90;;;;;;5031960;28;20041;-81
2022/05/09 09:42:29;;;;;;;7.93;7.15;;;20.50;99.90;;;;;;5032284;28;20052;-81
2022/05/09 09:44:56;;;;;;;8.07;7.38;;;20.50;99.90;;;;;;5031823;28;20071;-81
2022/05/09 09:47:29;;;;;;;7.35;6.65;;;20.80;99.90;;;;;;5031245;28;20128;-82
2022/05/09 09:50:15;;;;;;;8.10;6.32;;;21.00;99.90;;;;;;5031875;28;20700;-82
2022/05/09 09:52:58;;;;;;;7.20;6.70;;;21.30;99.90;;;;;;5031796;28;20075;-82
2022/05/09 09:55:28;;;;;;;6.57;6.07;;;21.40;99.90;;;;;;5017967;28;20037;-84
2022/05/09 09:57:56;;;;;;;6.95;6.35;;;21.60;99.90;;;;;;5031866;28;20030;-84
2022/05/09 10:00:30;;;;;;;6.40;5.80;;;21.50;99.90;;;;;;5030015;28;20104;-82
2022/05/09 10:03:20;;;;;;;6.78;6.20;;;21.60;99.90;;;;;;5031134;28;20037;-82
2022/05/09 10:05:49;;;;;;;6.63;6.13;;;21.70;99.90;;;;;;5031582;28;20056;-82
2022/05/09 10:08:39;;;;;;;6.45;5.82;;;21.80;99.90;;;;;;5031503;28;20529;-82
2022/05/09 10:11:09;;;;;;;6.80;6.30;;;21.80;99.90;;;;;;5031672;28;20105;-82
2022/05/09 10:13:46;;;;;;;6.22;5.50;;;21.90;99.90;;;;;;5031347;28;20038;-82
2022/05/09 10:16:26;;;;;;;6.53;5.93;;;22.10;99.90;;;;;;5015758;28;20048;-81
2022/05/09 10:18:53;;;;;;;6.32;5.55;;;22.40;99.90;;;;;;5031718;28;20056;-82
2022/05/09 10:24:51;;;;;;;5.85;5.45;;;22.60;99.90;;;;;;5030626;28;20075;-82
2022/05/09 10:27:22;;;;;;;6.15;5.63;;;22.60;99.90;;;;;;5031473;28;20516;-81
2022/05/09 10:29:55;;;;;;;6.63;5.90;;;22.30;99.90;;;;;;5034157;28;20037;-81
2022/05/09 10:32:29;;;;;;;5.82;5.30;;;22.30;99.90;;;;;;5034846;28;20053;-82
2022/05/09 10:35:07;;;;;;;6.40;5.80;;;22.40;99.90;;;;;;5017429;28;20580;-81
2022/05/09 10:38:04;;;;;;;6.38;5.82;;;22.60;99.90;;;;;;5035218;28;20029;-81
2022/05/09 10:40:45;;;;;;;6.57;5.97;;;22.60;99.90;;;;;;5013999;28;20045;-82
2022/05/09 10:43:33;;;;;;;6.82;6.20;;;22.40;99.90;;;;;;5019978;28;20052;-82
2022/05/09 10:46:07;;;;;;;6.32;5.82;;;22.30;99.90;;;;;;5034917;28;20017;-82
2022/05/09 10:48:59;;;;;;;6.47;5.97;;;22.60;99.90;;;;;;5035326;28;20025;-81
2022/05/09 10:51:38;;;;;;;6.20;5.70;;;22.70;99.90;;;;;;5034095;28;20239;-82
2022/05/09 10:54:39;;;;;;;6.22;5.72;;;22.80;99.90;;;;;;5035053;28;20060;-82
2022/05/09 10:57:22;;;;;;;6.07;5.65;;;23.10;99.90;;;;;;5034839;28;20087;-81
2022/05/09 10:59:49;;;;;;;6.20;5.68;;;23.20;99.90;;;;;;5034589;28;20039;-82
2022/05/09 11:02:36;;;;;;;7.15;6.45;;;23.30;99.90;;;;;;5034377;28;20021;-82
2022/05/09 11:05:03;;;;;;;6.10;5.63;;;23.10;99.90;;;;;;5034497;28;20080;-81
2022/05/09 11:08:00;;;;;;;6.00;5.55;;;23.20;99.90;;;;;;5034780;28;20551;-82
2022/05/09 11:10:41;;;;;;;11.55;6.22;;;23.40;99.90;;;;;;5021304;28;20025;-82
2022/05/09 11:13:16;;;;;;;6.68;5.10;;;23.40;99.90;;;;;;5034638;28;20037;-82
2022/05/09 11:16:09;;;;;;;5.57;5.18;;;23.50;99.90;;;;;;5031288;28;20156;-82
2022/05/09 11:18:54;;;;;;;6.20;5.53;;;23.50;99.90;;;;;;5034863;28;20032;-82
2022/05/09 11:21:39;;;;;;;5.65;5.15;;;23.70;99.90;;;;;;5050221;28;20037;-81
2022/05/09 11:24:10;;;;;;;6.35;5.40;;;23.70;99.90;;;;;;5034425;28;20414;-82
2022/05/09 11:27:03;;;;;;;5.60;5.20;;;23.60;99.90;;;;;;5034359;28;20033;-81
2022/05/09 11:29:54;;;;;;;5.00;4.60;;;24.00;99.90;;;;;;5033454;28;20030;-82
2022/05/09 11:32:32;;;;;;;5.82;5.32;;;24.60;99.90;;;;;;5033912;28;20053;-82
2022/05/09 11:34:58;;;;;;;5.32;4.93;;;24.70;99.90;;;;;;5034158;28;20045;-82
2022/05/09 11:37:23;;;;;;;5.68;4.90;;;25.30;99.90;;;;;;5034646;28;20033;-82
2022/05/09 11:40:31;;;;;;;5.40;4.90;;;25.50;99.90;;;;;;5033275;28;20033;-82
2022/05/09 11:43:40;;;;;;;4.97;4.55;;;25.80;99.90;;;;;;4951470;29;20130;-82
2022/05/09 11:46:24;;;;;;;4.97;4.57;;;26.40;99.90;;;;;;4878010;29;20044;-82
2022/05/09 11:49:23;;;;;;;5.25;4.95;;;26.30;99.90;;;;;;4893295;29;20036;-82
2022/05/09 11:51:55;;;;;;;4.80;4.40;;;26.10;99.90;;;;;;4893155;29;20044;-82
2022/05/09 11:54:37;;;;;;;4.97;4.63;;;26.60;99.90;;;;;;4882696;29;20066;-82
2022/05/09 11:57:29;;;;;;;4.57;4.20;;;27.00;99.90;;;;;;4881644;29;20060;-81
2022/05/09 11:59:56;;;;;;;5.10;4.60;;;26.90;99.90;;;;;;4876783;29;20051;-82
2022/05/09 12:02:57;;;;;;;5.40;4.57;;;27.20;99.90;;;;;;4881833;29;20405;-82
2022/05/09 12:05:25;;;;;;;5.32;4.10;;;27.60;99.90;;;;;;4881694;29;20045;-82
2022/05/09 12:08:03;;;;;;;4.70;4.40;;;27.90;99.90;;;;;;4881765;29;20127;-82
2022/05/09 12:10:31;;;;;;;5.78;4.47;;;28.40;99.90;;;;;;4879894;29;20127;-82
2022/05/09 12:13:00;;;;;;;4.50;4.10;;;28.50;99.90;;;;;;4878325;29;20426;-82
2022/05/09 12:15:33;;;;;;;5.10;4.53;;;28.70;99.90;;;;;;4882188;29;20125;-82
2022/05/09 12:17:58;;;;;;;4.25;3.92;;;29.40;99.90;;;;;;4883397;29;20208;-82
2022/05/09 12:20:27;;;;;;;4.80;4.40;;;30.20;99.90;;;;;;5008381;28;20430;-82
2022/05/09 12:22:53;;;;;;;4.60;4.30;;;30.20;99.90;;;;;;5033213;28;20034;-82
2022/05/09 12:25:34;;;;;;;4.50;4.15;;;30.00;99.90;;;;;;5033452;28;20026;-82
2022/05/09 12:28:19;;;;;;;4.93;4.53;;;29.80;99.90;;;;;;5033047;28;20029;-83
2022/05/09 12:30:56;;;;;;;4.97;4.57;;;30.00;99.90;;;;;;5030242;28;20018;-82
2022/05/09 12:33:41;;;;;;;4.72;4.38;;;30.50;99.90;;;;;;5031284;28;20045;-82
2022/05/09 12:36:06;;;;;;;4.20;3.90;;;31.20;99.90;;;;;;5033055;28;20378;-82
2022/05/09 12:38:36;;;;;;;4.30;3.88;;;31.50;99.90;;;;;;5032691;28;20163;-82
2022/05/09 12:41:02;;;;;;;4.50;4.20;;;31.20;99.90;;;;;;5032458;28;20107;-81
2022/05/09 12:43:30;;;;;;;4.15;3.75;;;31.20;99.90;;;;;;5032910;28;20069;-82
2022/05/09 12:45:57;;;;;;;4.20;3.90;;;31.20;99.90;;;;;;5033191;28;20025;-82
2022/05/09 12:48:23;;;;;;;3.83;3.63;;;31.30;99.90;;;;;;5033253;28;20017;-82
2022/05/09 12:50:49;;;;;;;4.38;4.00;;;31.30;99.90;;;;;;5032637;28;20034;-82
2022/05/09 12:53:17;;;;;;;4.30;3.90;;;31.40;99.90;;;;;;5032247;28;20025;-82
2022/05/09 12:55:55;;;;;;;4.60;4.30;;;31.00;99.90;;;;;;5032417;28;20046;-82
2022/05/09 12:58:32;;;;;;;4.15;3.85;;;30.80;99.90;;;;;;5018294;28;20029;-82
2022/05/09 13:01:14;;;;;;;4.10;3.80;;;31.00;99.90;;;;;;5032903;28;20025;-83
2022/05/09 13:03:52;;;;;;;4.20;3.90;;;31.20;99.90;;;;;;5029258;28;20052;-83
2022/05/09 13:06:24;;;;;;;4.30;3.90;;;31.30;99.90;;;;;;5032209;28;20508;-83